sensor_id;sensor_type;location;lat;lon;timestamp;temperature;humidity
7572;DHT22;3827;49.928;8.548;2022-10-17T00:00:43;12.40;99.90
7572;DHT22;3827;49.928;8.548;2022-10-17T00:03:10;12.40;99.90
7572;DHT22;3827;49.928;8.548;2022-10-17T00:05:38;12.40;99.90
7572;DHT22;3827;49.928;8.548;2022-10-17T00:08:05;12.50;99.90
7572;DHT22;3827;49.928;8.548;2022-10-17T00:10:32;12.40;99.90
7572;DHT22;3827;49.928;8.548;2022-10-17T00:12:59;12.40;99.90
7572;DHT22;3827;49.928;8.548;2022-10-17T00:15:27;12.50;99.90
7572;DHT22;3827;49.928;8.548;2022-10-17T00:17:54;12.40;99.90
7572;DHT22;3827;49.928;8.548;2022-10-17T00:20:21;12.40;99.90
7572;DHT22;3827;49.928;8.548;2022-10-17T00:22:48;12.30;99.90
7572;DHT22;3827;49.928;8.548;2022-10-17T00:25:15;12.30;99.90
7572;DHT22;3827;49.928;8.548;2022-10-17T00:27:42;12.30;99.90
7572;DHT22;3827;49.928;8.548;2022-10-17T00:30:10;12.30;99.90
7572;DHT22;3827;49.928;8.548;2022-10-17T00:32:39;12.20;99.90
7572;DHT22;3827;49.928;8.548;2022-10-17T00:35:07;12.20;99.90
7572;DHT22;3827;49.928;8.548;2022-10-17T00:37:34;12.20;99.90
7572;DHT22;3827;49.928;8.548;2022-10-17T00:40:01;12.10;99.90
7572;DHT22;3827;49.928;8.548;2022-10-17T00:42:29;12.10;99.90
7572;DHT22;3827;49.928;8.548;2022-10-17T00:45:12;12.10;99.90
7572;DHT22;3827;49.928;8.548;2022-10-17T00:47:41;12.10;99.90
7572;DHT22;3827;49.928;8.548;2022-10-17T00:50:12;12.00;99.90
7572;DHT22;3827;49.928;8.548;2022-10-17T00:52:39;12.00;99.90
7572;DHT22;3827;49.928;8.548;2022-10-17T00:55:11;12.10;99.90
7572;DHT22;3827;49.928;8.548;2022-10-17T00:57:39;12.10;99.90
7572;DHT22;3827;49.928;8.548;2022-10-17T01:00:08;12.00;99.90
7572;DHT22;3827;49.928;8.548;2022-10-17T01:02:36;11.90;99.90
7572;DHT22;3827;49.928;8.548;2022-10-17T01:05:05;12.00;99.90
7572;DHT22;3827;49.928;8.548;2022-10-17T01:07:33;11.90;99.90
7572;DHT22;3827;49.928;8.548;2022-10-17T01:10:00;11.80;99.90
7572;DHT22;3827;49.928;8.548;2022-10-17T01:12:33;11.80;99.90
7572;DHT22;3827;49.928;8.548;2022-10-17T01:15:11;11.80;99.90
7572;DHT22;3827;49.928;8.548;2022-10-17T01:17:49;11.80;99.90
7572;DHT22;3827;49.928;8.548;2022-10-17T01:23:59;11.80;99.90
7572;DHT22;3827;49.928;8.548;2022-10-17T01:26:40;11.80;99.90
7572;DHT22;3827;49.928;8.548;2022-10-17T01:29:32;11.70;99.90
7572;DHT22;3827;49.928;8.548;2022-10-17T01:32:05;11.70;99.90
7572;DHT22;3827;49.928;8.548;2022-10-17T01:34:38;11.60;99.90
7572;DHT22;3827;49.928;8.548;2022-10-17T01:37:14;11.60;99.90
7572;DHT22;3827;49.928;8.548;2022-10-17T01:39:45;11.60;99.90
7572;DHT22;3827;49.928;8.548;2022-10-17T01:42:17;11.60;99.90
7572;DHT22;3827;49.928;8.548;2022-10-17T01:44:48;11.60;99.90
7572;DHT22;3827;49.928;8.548;2022-10-17T01:47:20;11.60;99.90
7572;DHT22;3827;49.928;8.548;2022-10-17T01:49:50;11.60;99.90
7572;DHT22;3827;49.928;8.548;2022-10-17T01:52:22;11.60;99.90
7572;DHT22;3827;49.928;8.548;2022-10-17T01:54:52;11.70;99.90
7572;DHT22;3827;49.928;8.548;2022-10-17T01:57:25;11.60;99.90
7572;DHT22;3827;49.928;8.548;2022-10-17T01:59:54;11.60;99.90
7572;DHT22;3827;49.928;8.548;2022-10-17T02:02:24;11.50;99.90
7572;DHT22;3827;49.928;8.548;2022-10-17T02:04:54;11.50;99.90
7572;DHT22;3827;49.928;8.548;2022-10-17T02:07:22;11.50;99.90
7572;DHT22;3827;49.928;8.548;2022-10-17T02:09:49;11.50;99.90
7572;DHT22;3827;49.928;8.548;2022-10-17T02:12:31;11.50;99.90
7572;DHT22;3827;49.928;8.548;2022-10-17T02:15:20;11.50;99.90
7572;DHT22;3827;49.928;8.548;2022-10-17T02:17:56;11.50;99.90
7572;DHT22;3827;49.928;8.548;2022-10-17T02:20:32;11.40;99.90
7572;DHT22;3827;49.928;8.548;2022-10-17T02:23:09;11.60;99.90
7572;DHT22;3827;49.928;8.548;2022-10-17T02:25:40;11.40;99.90
7572;DHT22;3827;49.928;8.548;2022-10-17T02:28:18;11.50;99.90
7572;DHT22;3827;49.928;8.548;2022-10-17T02:30:50;11.40;99.90
7572;DHT22;3827;49.928;8.548;2022-10-17T02:33:22;11.40;99.90
7572;DHT22;3827;49.928;8.548;2022-10-17T02:35:53;11.40;99.90
7572;DHT22;3827;49.928;8.548;2022-10-17T02:38:24;11.40;99.90
7572;DHT22;3827;49.928;8.548;2022-10-17T02:40:52;11.30;99.90
7572;DHT22;3827;49.928;8.548;2022-10-17T02:43:19;11.30;99.90
7572;DHT22;3827;49.928;8.548;2022-10-17T02:45:48;11.30;99.90
7572;DHT22;3827;49.928;8.548;2022-10-17T02:48:21;11.20;99.90
7572;DHT22;3827;49.928;8.548;2022-10-17T02:50:56;11.10;99.90
7572;DHT22;3827;49.928;8.548;2022-10-17T02:53:31;11.10;99.90
7572;DHT22;3827;49.928;8.548;2022-10-17T02:56:05;11.10;99.90
7572;DHT22;3827;49.928;8.548;2022-10-17T02:58:35;11.10;99.90
7572;DHT22;3827;49.928;8.548;2022-10-17T03:01:03;11.20;99.90
7572;DHT22;3827;49.928;8.548;2022-10-17T03:03:32;11.00;99.90
7572;DHT22;3827;49.928;8.548;2022-10-17T03:05:59;11.00;99.90
7572;DHT22;3827;49.928;8.548;2022-10-17T03:08:26;11.00;99.90
7572;DHT22;3827;49.928;8.548;2022-10-17T03:10:52;11.00;99.90
7572;DHT22;3827;49.928;8.548;2022-10-17T03:13:19;11.00;99.90
7572;DHT22;3827;49.928;8.548;2022-10-17T03:15:46;11.00;99.90
7572;DHT22;3827;49.928;8.548;2022-10-17T03:18:13;11.00;99.90
7572;DHT22;3827;49.928;8.548;2022-10-17T03:20:41;11.00;99.90
7572;DHT22;3827;49.928;8.548;2022-10-17T03:23:08;11.10;99.90
7572;DHT22;3827;49.928;8.548;2022-10-17T03:25:35;11.10;99.90
7572;DHT22;3827;49.928;8.548;2022-10-17T03:28:02;11.20;99.90
7572;DHT22;3827;49.928;8.548;2022-10-17T03:30:30;11.20;99.90
7572;DHT22;3827;49.928;8.548;2022-10-17T03:32:57;11.20;99.90
7572;DHT22;3827;49.928;8.548;2022-10-17T03:35:24;11.20;99.90
7572;DHT22;3827;49.928;8.548;2022-10-17T03:37:54;11.20;99.90
7572;DHT22;3827;49.928;8.548;2022-10-17T03:40:21;11.20;99.90
7572;DHT22;3827;49.928;8.548;2022-10-17T03:42:48;11.20;99.90
7572;DHT22;3827;49.928;8.548;2022-10-17T03:45:15;11.20;99.90
7572;DHT22;3827;49.928;8.548;2022-10-17T03:47:41;11.20;99.90
7572;DHT22;3827;49.928;8.548;2022-10-17T03:50:08;11.20;99.90
7572;DHT22;3827;49.928;8.548;2022-10-17T03:52:35;11.10;99.90
7572;DHT22;3827;49.928;8.548;2022-10-17T03:55:04;11.10;99.90
7572;DHT22;3827;49.928;8.548;2022-10-17T03:57:33;11.00;99.90
7572;DHT22;3827;49.928;8.548;2022-10-17T04:00:00;10.90;99.90
7572;DHT22;3827;49.928;8.548;2022-10-17T04:02:27;10.90;99.90
7572;DHT22;3827;49.928;8.548;2022-10-17T04:04:53;10.80;99.90
7572;DHT22;3827;49.928;8.548;2022-10-17T04:07:20;10.70;99.90
7572;DHT22;3827;49.928;8.548;2022-10-17T04:09:47;10.70;99.90
7572;DHT22;3827;49.928;8.548;2022-10-17T04:12:15;10.70;99.90
7572;DHT22;3827;49.928;8.548;2022-10-17T04:14:42;10.70;99.90
7572;DHT22;3827;49.928;8.548;2022-10-17T04:17:09;10.70;99.90
7572;DHT22;3827;49.928;8.548;2022-10-17T04:19:36;10.90;99.90
7572;DHT22;3827;49.928;8.548;2022-10-17T04:22:02;10.80;99.90
7572;DHT22;3827;49.928;8.548;2022-10-17T04:24:29;10.80;99.90
7572;DHT22;3827;49.928;8.548;2022-10-17T04:26:56;11.10;99.90
7572;DHT22;3827;49.928;8.548;2022-10-17T04:29:25;10.90;99.90
7572;DHT22;3827;49.928;8.548;2022-10-17T04:31:52;10.90;99.90
7572;DHT22;3827;49.928;8.548;2022-10-17T04:34:20;11.00;99.90
7572;DHT22;3827;49.928;8.548;2022-10-17T04:36:47;11.00;99.90
7572;DHT22;3827;49.928;8.548;2022-10-17T04:39:14;11.00;99.90
7572;DHT22;3827;49.928;8.548;2022-10-17T04:41:41;11.00;99.90
7572;DHT22;3827;49.928;8.548;2022-10-17T04:44:09;11.10;99.90
7572;DHT22;3827;49.928;8.548;2022-10-17T04:46:37;11.10;99.90
7572;DHT22;3827;49.928;8.548;2022-10-17T04:49:04;11.10;99.90
7572;DHT22;3827;49.928;8.548;2022-10-17T04:51:31;11.00;99.90
7572;DHT22;3827;49.928;8.548;2022-10-17T04:53:58;11.10;99.90
7572;DHT22;3827;49.928;8.548;2022-10-17T04:56:25;11.10;99.90
7572;DHT22;3827;49.928;8.548;2022-10-17T04:58:52;11.00;99.90
7572;DHT22;3827;49.928;8.548;2022-10-17T05:01:20;11.00;99.90
7572;DHT22;3827;49.928;8.548;2022-10-17T05:03:49;11.10;99.90
7572;DHT22;3827;49.928;8.548;2022-10-17T05:06:18;11.10;99.90
7572;DHT22;3827;49.928;8.548;2022-10-17T05:08:46;11.10;99.90
7572;DHT22;3827;49.928;8.548;2022-10-17T05:11:18;11.00;99.90
7572;DHT22;3827;49.928;8.548;2022-10-17T05:13:49;11.00;99.90
7572;DHT22;3827;49.928;8.548;2022-10-17T05:16:16;11.00;99.90
7572;DHT22;3827;49.928;8.548;2022-10-17T05:18:42;11.00;99.90
7572;DHT22;3827;49.928;8.548;2022-10-17T05:21:10;10.90;99.90
7572;DHT22;3827;49.928;8.548;2022-10-17T05:23:37;10.80;99.90
7572;DHT22;3827;49.928;8.548;2022-10-17T05:26:04;10.70;99.90
7572;DHT22;3827;49.928;8.548;2022-10-17T05:28:31;10.60;99.90
7572;DHT22;3827;49.928;8.548;2022-10-17T05:31:01;10.60;99.90
7572;DHT22;3827;49.928;8.548;2022-10-17T05:33:28;10.50;99.90
7572;DHT22;3827;49.928;8.548;2022-10-17T05:35:55;10.50;99.90
7572;DHT22;3827;49.928;8.548;2022-10-17T05:38:23;10.50;99.90
7572;DHT22;3827;49.928;8.548;2022-10-17T05:40:50;10.40;99.90
7572;DHT22;3827;49.928;8.548;2022-10-17T05:43:17;10.40;99.90
7572;DHT22;3827;49.928;8.548;2022-10-17T05:45:44;10.40;99.90
7572;DHT22;3827;49.928;8.548;2022-10-17T05:48:10;10.30;99.90
7572;DHT22;3827;49.928;8.548;2022-10-17T05:50:37;10.40;99.90
7572;DHT22;3827;49.928;8.548;2022-10-17T05:53:04;10.40;99.90
7572;DHT22;3827;49.928;8.548;2022-10-17T05:55:32;10.30;99.90
7572;DHT22;3827;49.928;8.548;2022-10-17T05:57:59;10.30;99.90
7572;DHT22;3827;49.928;8.548;2022-10-17T06:00:26;10.30;99.90
7572;DHT22;3827;49.928;8.548;2022-10-17T06:02:53;10.40;99.90
7572;DHT22;3827;49.928;8.548;2022-10-17T06:05:20;10.40;99.90
7572;DHT22;3827;49.928;8.548;2022-10-17T06:07:47;10.50;99.90
7572;DHT22;3827;49.928;8.548;2022-10-17T06:10:17;10.60;99.90
7572;DHT22;3827;49.928;8.548;2022-10-17T06:12:45;10.60;99.90
7572;DHT22;3827;49.928;8.548;2022-10-17T06:15:12;10.60;99.90
7572;DHT22;3827;49.928;8.548;2022-10-17T06:17:39;10.70;99.90
7572;DHT22;3827;49.928;8.548;2022-10-17T06:20:07;10.70;99.90
7572;DHT22;3827;49.928;8.548;2022-10-17T06:22:33;10.70;99.90
7572;DHT22;3827;49.928;8.548;2022-10-17T06:25:00;10.80;99.90
7572;DHT22;3827;49.928;8.548;2022-10-17T06:27:27;10.80;99.90
7572;DHT22;3827;49.928;8.548;2022-10-17T06:29:56;10.70;99.90
7572;DHT22;3827;49.928;8.548;2022-10-17T06:32:23;10.70;99.90
7572;DHT22;3827;49.928;8.548;2022-10-17T06:34:50;10.60;99.90
7572;DHT22;3827;49.928;8.548;2022-10-17T06:37:17;10.60;99.90
7572;DHT22;3827;49.928;8.548;2022-10-17T06:39:44;10.60;99.90
7572;DHT22;3827;49.928;8.548;2022-10-17T06:42:10;10.70;99.90
7572;DHT22;3827;49.928;8.548;2022-10-17T06:44:37;10.70;99.90
7572;DHT22;3827;49.928;8.548;2022-10-17T06:47:07;10.80;99.90
7572;DHT22;3827;49.928;8.548;2022-10-17T06:49:34;11.00;99.90
7572;DHT22;3827;49.928;8.548;2022-10-17T06:52:02;11.00;99.90
7572;DHT22;3827;49.928;8.548;2022-10-17T06:54:29;11.10;99.90
7572;DHT22;3827;49.928;8.548;2022-10-17T06:56:55;11.20;99.90
7572;DHT22;3827;49.928;8.548;2022-10-17T06:59:22;11.30;99.90
7572;DHT22;3827;49.928;8.548;2022-10-17T07:01:49;11.40;99.90
7572;DHT22;3827;49.928;8.548;2022-10-17T07:04:17;11.40;99.90
7572;DHT22;3827;49.928;8.548;2022-10-17T07:06:44;11.40;99.90
7572;DHT22;3827;49.928;8.548;2022-10-17T07:09:11;11.60;99.90
7572;DHT22;3827;49.928;8.548;2022-10-17T07:11:38;11.60;99.90
7572;DHT22;3827;49.928;8.548;2022-10-17T07:14:05;11.70;99.90
7572;DHT22;3827;49.928;8.548;2022-10-17T07:16:32;11.80;99.90
7572;DHT22;3827;49.928;8.548;2022-10-17T07:18:59;11.90;99.90
7572;DHT22;3827;49.928;8.548;2022-10-17T07:21:27;12.00;99.90
7572;DHT22;3827;49.928;8.548;2022-10-17T07:23:54;12.10;99.90
7572;DHT22;3827;49.928;8.548;2022-10-17T07:26:21;12.10;99.90
7572;DHT22;3827;49.928;8.548;2022-10-17T07:28:52;12.30;99.90
7572;DHT22;3827;49.928;8.548;2022-10-17T07:31:20;12.40;99.90
7572;DHT22;3827;49.928;8.548;2022-10-17T07:33:48;12.50;99.90
7572;DHT22;3827;49.928;8.548;2022-10-17T07:36:15;12.50;99.90
7572;DHT22;3827;49.928;8.548;2022-10-17T07:38:43;12.70;99.90
7572;DHT22;3827;49.928;8.548;2022-10-17T07:41:11;12.80;99.90
7572;DHT22;3827;49.928;8.548;2022-10-17T07:43:38;13.00;99.90
7572;DHT22;3827;49.928;8.548;2022-10-17T07:46:06;13.10;99.90
7572;DHT22;3827;49.928;8.548;2022-10-17T07:48:33;13.30;99.90
7572;DHT22;3827;49.928;8.548;2022-10-17T07:51:01;13.50;99.90
7572;DHT22;3827;49.928;8.548;2022-10-17T07:53:29;13.70;99.90
7572;DHT22;3827;49.928;8.548;2022-10-17T07:55:57;13.80;99.90
7572;DHT22;3827;49.928;8.548;2022-10-17T07:58:24;14.00;99.90
7572;DHT22;3827;49.928;8.548;2022-10-17T08:00:53;14.10;99.90
7572;DHT22;3827;49.928;8.548;2022-10-17T08:03:19;14.20;99.90
7572;DHT22;3827;49.928;8.548;2022-10-17T08:05:46;14.30;99.90
7572;DHT22;3827;49.928;8.548;2022-10-17T08:08:13;14.50;99.90
7572;DHT22;3827;49.928;8.548;2022-10-17T08:10:40;14.60;99.90
7572;DHT22;3827;49.928;8.548;2022-10-17T08:13:08;14.80;99.90
7572;DHT22;3827;49.928;8.548;2022-10-17T08:15:36;15.00;99.90
7572;DHT22;3827;49.928;8.548;2022-10-17T08:18:04;15.00;99.90
7572;DHT22;3827;49.928;8.548;2022-10-17T08:20:31;15.10;99.90
7572;DHT22;3827;49.928;8.548;2022-10-17T08:22:57;15.50;99.90
7572;DHT22;3827;49.928;8.548;2022-10-17T08:25:24;15.20;99.90
7572;DHT22;3827;49.928;8.548;2022-10-17T08:27:51;15.20;99.90
7572;DHT22;3827;49.928;8.548;2022-10-17T08:30:19;15.20;99.90
7572;DHT22;3827;49.928;8.548;2022-10-17T08:32:46;15.30;99.90
7572;DHT22;3827;49.928;8.548;2022-10-17T08:35:13;15.40;99.90
7572;DHT22;3827;49.928;8.548;2022-10-17T08:37:40;15.50;99.90
7572;DHT22;3827;49.928;8.548;2022-10-17T08:40:15;15.60;99.90
7572;DHT22;3827;49.928;8.548;2022-10-17T08:42:58;15.70;99.90
7572;DHT22;3827;49.928;8.548;2022-10-17T08:45:32;15.70;99.90
7572;DHT22;3827;49.928;8.548;2022-10-17T08:48:04;15.80;99.90
7572;DHT22;3827;49.928;8.548;2022-10-17T08:50:35;15.80;99.90
7572;DHT22;3827;49.928;8.548;2022-10-17T08:53:07;15.90;99.90
7572;DHT22;3827;49.928;8.548;2022-10-17T08:55:39;16.00;99.90
7572;DHT22;3827;49.928;8.548;2022-10-17T08:58:12;16.00;99.90
7572;DHT22;3827;49.928;8.548;2022-10-17T09:00:45;16.10;99.90
7572;DHT22;3827;49.928;8.548;2022-10-17T09:03:25;16.10;99.90
7572;DHT22;3827;49.928;8.548;2022-10-17T09:06:04;16.20;99.90
7572;DHT22;3827;49.928;8.548;2022-10-17T09:08:44;16.20;99.90
7572;DHT22;3827;49.928;8.548;2022-10-17T09:11:23;16.20;99.90
7572;DHT22;3827;49.928;8.548;2022-10-17T09:14:02;16.20;99.90
7572;DHT22;3827;49.928;8.548;2022-10-17T09:17:02;16.30;99.90
7572;DHT22;3827;49.928;8.548;2022-10-17T09:19:33;16.40;99.90
7572;DHT22;3827;49.928;8.548;2022-10-17T09:22:03;16.50;99.90
7572;DHT22;3827;49.928;8.548;2022-10-17T09:24:38;16.50;99.90
7572;DHT22;3827;49.928;8.548;2022-10-17T09:27:15;16.60;99.90
7572;DHT22;3827;49.928;8.548;2022-10-17T09:29:45;16.70;99.90
7572;DHT22;3827;49.928;8.548;2022-10-17T09:32:18;16.80;99.90
7572;DHT22;3827;49.928;8.548;2022-10-17T09:34:46;17.00;99.90
7572;DHT22;3827;49.928;8.548;2022-10-17T09:37:15;17.10;99.90
7572;DHT22;3827;49.928;8.548;2022-10-17T09:39:43;17.30;99.90
7572;DHT22;3827;49.928;8.548;2022-10-17T09:42:13;17.40;99.90
7572;DHT22;3827;49.928;8.548;2022-10-17T09:44:47;17.50;99.90
7572;DHT22;3827;49.928;8.548;2022-10-17T09:47:28;17.50;99.90
7572;DHT22;3827;49.928;8.548;2022-10-17T09:49:56;17.70;99.90
7572;DHT22;3827;49.928;8.548;2022-10-17T09:52:27;17.80;99.90
7572;DHT22;3827;49.928;8.548;2022-10-17T09:54:57;17.80;99.90
7572;DHT22;3827;49.928;8.548;2022-10-17T09:57:25;17.90;99.90
7572;DHT22;3827;49.928;8.548;2022-10-17T09:59:57;18.00;99.90
7572;DHT22;3827;49.928;8.548;2022-10-17T10:02:27;18.00;99.90
7572;DHT22;3827;49.928;8.548;2022-10-17T10:04:57;18.20;99.90
7572;DHT22;3827;49.928;8.548;2022-10-17T10:07:26;18.40;99.90
7572;DHT22;3827;49.928;8.548;2022-10-17T10:09:53;18.60;99.90
7572;DHT22;3827;49.928;8.548;2022-10-17T10:12:22;18.70;99.90
7572;DHT22;3827;49.928;8.548;2022-10-17T10:14:50;18.90;99.90
7572;DHT22;3827;49.928;8.548;2022-10-17T10:17:33;19.00;99.90
7572;DHT22;3827;49.928;8.548;2022-10-17T10:20:01;19.20;99.90
7572;DHT22;3827;49.928;8.548;2022-10-17T10:22:29;19.30;99.90
7572;DHT22;3827;49.928;8.548;2022-10-17T10:25:14;19.50;99.90
7572;DHT22;3827;49.928;8.548;2022-10-17T10:27:42;19.60;99.90
7572;DHT22;3827;49.928;8.548;2022-10-17T10:30:16;19.80;99.90
7572;DHT22;3827;49.928;8.548;2022-10-17T10:32:47;20.90;99.90
7572;DHT22;3827;49.928;8.548;2022-10-17T10:35:20;20.30;99.90
7572;DHT22;3827;49.928;8.548;2022-10-17T10:37:49;20.50;99.90
7572;DHT22;3827;49.928;8.548;2022-10-17T10:40:19;20.70;99.90
7572;DHT22;3827;49.928;8.548;2022-10-17T10:42:48;20.90;99.90
7572;DHT22;3827;49.928;8.548;2022-10-17T10:45:17;21.10;99.90
7572;DHT22;3827;49.928;8.548;2022-10-17T10:47:53;21.20;99.90
7572;DHT22;3827;49.928;8.548;2022-10-17T10:50:25;21.40;99.90
7572;DHT22;3827;49.928;8.548;2022-10-17T10:53:05;21.30;99.90
7572;DHT22;3827;49.928;8.548;2022-10-17T10:55:36;21.30;99.90
7572;DHT22;3827;49.928;8.548;2022-10-17T10:58:13;21.50;99.90
7572;DHT22;3827;49.928;8.548;2022-10-17T11:00:42;21.70;99.90
7572;DHT22;3827;49.928;8.548;2022-10-17T11:03:15;21.80;99.90
7572;DHT22;3827;49.928;8.548;2022-10-17T11:05:48;21.90;99.90
7572;DHT22;3827;49.928;8.548;2022-10-17T11:08:22;21.80;99.90
7572;DHT22;3827;49.928;8.548;2022-10-17T11:11:11;21.80;99.90
7572;DHT22;3827;49.928;8.548;2022-10-17T11:13:46;21.90;99.90
7572;DHT22;3827;49.928;8.548;2022-10-17T11:16:26;22.00;99.90
7572;DHT22;3827;49.928;8.548;2022-10-17T11:18:58;22.20;99.90
7572;DHT22;3827;49.928;8.548;2022-10-17T11:21:35;22.20;99.90
7572;DHT22;3827;49.928;8.548;2022-10-17T11:24:08;22.40;99.90
7572;DHT22;3827;49.928;8.548;2022-10-17T11:26:42;22.30;99.90
7572;DHT22;3827;49.928;8.548;2022-10-17T11:29:11;22.40;99.90
7572;DHT22;3827;49.928;8.548;2022-10-17T11:31:42;22.50;99.90
7572;DHT22;3827;49.928;8.548;2022-10-17T11:34:15;22.70;99.90
7572;DHT22;3827;49.928;8.548;2022-10-17T11:36:46;22.90;99.90
7572;DHT22;3827;49.928;8.548;2022-10-17T11:39:17;23.40;99.90
7572;DHT22;3827;49.928;8.548;2022-10-17T11:41:47;23.90;99.90
7572;DHT22;3827;49.928;8.548;2022-10-17T11:44:20;24.30;99.90
7572;DHT22;3827;49.928;8.548;2022-10-17T11:46:53;24.40;99.90
7572;DHT22;3827;49.928;8.548;2022-10-17T11:49:25;24.60;99.90
7572;DHT22;3827;49.928;8.548;2022-10-17T11:52:00;24.60;99.90
7572;DHT22;3827;49.928;8.548;2022-10-17T11:54:32;24.60;99.90
7572;DHT22;3827;49.928;8.548;2022-10-17T11:57:11;24.70;99.90
7572;DHT22;3827;49.928;8.548;2022-10-17T12:00:02;24.70;99.90
7572;DHT22;3827;49.928;8.548;2022-10-17T12:02:39;24.70;99.90
7572;DHT22;3827;49.928;8.548;2022-10-17T12:05:18;24.70;99.90
7572;DHT22;3827;49.928;8.548;2022-10-17T12:07:51;24.60;99.90
7572;DHT22;3827;49.928;8.548;2022-10-17T12:10:29;24.80;99.90
7572;DHT22;3827;49.928;8.548;2022-10-17T12:16:37;24.70;99.90
7572;DHT22;3827;49.928;8.548;2022-10-17T12:19:28;24.90;99.90
7572;DHT22;3827;49.928;8.548;2022-10-17T12:22:05;24.90;99.90
7572;DHT22;3827;49.928;8.548;2022-10-17T12:24:41;24.90;99.90
7572;DHT22;3827;49.928;8.548;2022-10-17T12:27:36;25.00;99.90
7572;DHT22;3827;49.928;8.548;2022-10-17T12:30:13;25.00;99.90
7572;DHT22;3827;49.928;8.548;2022-10-17T12:35:37;25.00;99.90
7572;DHT22;3827;49.928;8.548;2022-10-17T12:38:25;25.10;99.90
7572;DHT22;3827;49.928;8.548;2022-10-17T12:40:56;25.20;99.90
7572;DHT22;3827;49.928;8.548;2022-10-17T12:43:51;25.20;99.90
7572;DHT22;3827;49.928;8.548;2022-10-17T12:46:46;25.20;99.90
7572;DHT22;3827;49.928;8.548;2022-10-17T12:49:41;25.40;99.90
7572;DHT22;3827;49.928;8.548;2022-10-17T12:52:25;25.60;99.90
7572;DHT22;3827;49.928;8.548;2022-10-17T12:55:05;25.60;99.90
7572;DHT22;3827;49.928;8.548;2022-10-17T12:57:36;25.50;99.90
7572;DHT22;3827;49.928;8.548;2022-10-17T13:00:14;25.60;99.90
7572;DHT22;3827;49.928;8.548;2022-10-17T13:02:43;25.90;99.90
7572;DHT22;3827;49.928;8.548;2022-10-17T13:05:13;26.10;99.90
7572;DHT22;3827;49.928;8.548;2022-10-17T13:07:43;26.00;99.90
7572;DHT22;3827;49.928;8.548;2022-10-17T13:10:20;26.30;99.90
7572;DHT22;3827;49.928;8.548;2022-10-17T13:12:48;26.40;99.90
7572;DHT22;3827;49.928;8.548;2022-10-17T13:15:17;26.60;99.90
7572;DHT22;3827;49.928;8.548;2022-10-17T13:17:50;26.70;99.90
7572;DHT22;3827;49.928;8.548;2022-10-17T13:20:23;26.50;99.90
7572;DHT22;3827;49.928;8.548;2022-10-17T13:22:53;26.60;99.90
7572;DHT22;3827;49.928;8.548;2022-10-17T13:25:24;26.60;99.90
7572;DHT22;3827;49.928;8.548;2022-10-17T13:28:04;26.50;99.90
7572;DHT22;3827;49.928;8.548;2022-10-17T13:30:33;26.40;99.90
7572;DHT22;3827;49.928;8.548;2022-10-17T13:33:00;26.40;99.90
7572;DHT22;3827;49.928;8.548;2022-10-17T13:35:29;26.40;99.90
7572;DHT22;3827;49.928;8.548;2022-10-17T13:37:59;26.30;99.90
7572;DHT22;3827;49.928;8.548;2022-10-17T13:40:30;26.00;99.90
7572;DHT22;3827;49.928;8.548;2022-10-17T13:43:03;25.80;99.90
7572;DHT22;3827;49.928;8.548;2022-10-17T13:45:32;25.50;99.90
7572;DHT22;3827;49.928;8.548;2022-10-17T13:48:01;25.20;99.90
7572;DHT22;3827;49.928;8.548;2022-10-17T13:50:32;25.30;99.90
7572;DHT22;3827;49.928;8.548;2022-10-17T13:53:11;25.30;99.90
7572;DHT22;3827;49.928;8.548;2022-10-17T13:55:54;25.30;99.90
7572;DHT22;3827;49.928;8.548;2022-10-17T13:58:22;25.10;99.90
7572;DHT22;3827;49.928;8.548;2022-10-17T14:00:49;25.00;99.90
7572;DHT22;3827;49.928;8.548;2022-10-17T14:03:18;25.00;99.90
7572;DHT22;3827;49.928;8.548;2022-10-17T14:06:13;24.90;99.90
7572;DHT22;3827;49.928;8.548;2022-10-17T14:08:53;24.80;99.90
7572;DHT22;3827;49.928;8.548;2022-10-17T14:11:26;24.70;99.90
7572;DHT22;3827;49.928;8.548;2022-10-17T14:13:55;23.50;99.90
7572;DHT22;3827;49.928;8.548;2022-10-17T14:16:23;24.60;99.90
7572;DHT22;3827;49.928;8.548;2022-10-17T14:18:52;24.70;99.90
7572;DHT22;3827;49.928;8.548;2022-10-17T14:21:24;24.40;99.90
7572;DHT22;3827;49.928;8.548;2022-10-17T14:24:12;24.20;99.90
7572;DHT22;3827;49.928;8.548;2022-10-17T14:26:48;24.20;99.90
7572;DHT22;3827;49.928;8.548;2022-10-17T14:29:22;24.30;99.90
7572;DHT22;3827;49.928;8.548;2022-10-17T14:31:49;24.40;99.90
7572;DHT22;3827;49.928;8.548;2022-10-17T14:34:26;24.40;99.90
7572;DHT22;3827;49.928;8.548;2022-10-17T14:36:53;24.40;99.90
7572;DHT22;3827;49.928;8.548;2022-10-17T14:39:23;24.20;99.90
7572;DHT22;3827;49.928;8.548;2022-10-17T14:41:52;24.10;99.90
7572;DHT22;3827;49.928;8.548;2022-10-17T14:44:25;24.00;99.90
7572;DHT22;3827;49.928;8.548;2022-10-17T14:46:56;24.00;99.90
7572;DHT22;3827;49.928;8.548;2022-10-17T14:49:33;23.80;99.90
7572;DHT22;3827;49.928;8.548;2022-10-17T14:52:28;23.60;99.90
7572;DHT22;3827;49.928;8.548;2022-10-17T14:54:57;23.30;99.90
7572;DHT22;3827;49.928;8.548;2022-10-17T14:57:33;23.30;99.90
7572;DHT22;3827;49.928;8.548;2022-10-17T15:00:00;23.30;99.90
7572;DHT22;3827;49.928;8.548;2022-10-17T15:02:28;23.20;99.90
7572;DHT22;3827;49.928;8.548;2022-10-17T15:04:55;23.20;99.90
7572;DHT22;3827;49.928;8.548;2022-10-17T15:07:22;23.10;99.90
7572;DHT22;3827;49.928;8.548;2022-10-17T15:09:50;23.10;99.90
7572;DHT22;3827;49.928;8.548;2022-10-17T15:12:19;23.00;99.90
7572;DHT22;3827;49.928;8.548;2022-10-17T15:14:48;23.00;99.90
7572;DHT22;3827;49.928;8.548;2022-10-17T15:17:16;23.00;99.90
7572;DHT22;3827;49.928;8.548;2022-10-17T15:19:45;23.00;99.90
7572;DHT22;3827;49.928;8.548;2022-10-17T15:22:12;23.00;99.90
7572;DHT22;3827;49.928;8.548;2022-10-17T15:24:40;23.00;99.90
7572;DHT22;3827;49.928;8.548;2022-10-17T15:27:14;23.00;99.90
7572;DHT22;3827;49.928;8.548;2022-10-17T15:29:41;23.10;99.90
7572;DHT22;3827;49.928;8.548;2022-10-17T15:32:09;23.10;99.90
7572;DHT22;3827;49.928;8.548;2022-10-17T15:34:36;23.10;99.90
7572;DHT22;3827;49.928;8.548;2022-10-17T15:37:04;23.00;99.90
7572;DHT22;3827;49.928;8.548;2022-10-17T15:39:31;23.00;99.90
7572;DHT22;3827;49.928;8.548;2022-10-17T15:41:58;22.90;99.90
7572;DHT22;3827;49.928;8.548;2022-10-17T15:44:25;22.90;99.90
7572;DHT22;3827;49.928;8.548;2022-10-17T15:46:53;22.90;99.90
7572;DHT22;3827;49.928;8.548;2022-10-17T15:49:22;22.80;99.90
7572;DHT22;3827;49.928;8.548;2022-10-17T15:51:49;22.70;99.90
7572;DHT22;3827;49.928;8.548;2022-10-17T15:54:16;22.60;99.90
7572;DHT22;3827;49.928;8.548;2022-10-17T15:56:47;22.40;99.90
7572;DHT22;3827;49.928;8.548;2022-10-17T15:59:17;22.20;99.90
7572;DHT22;3827;49.928;8.548;2022-10-17T16:01:45;22.00;99.90
7572;DHT22;3827;49.928;8.548;2022-10-17T16:04:13;21.80;99.90
7572;DHT22;3827;49.928;8.548;2022-10-17T16:06:42;21.60;99.90
7572;DHT22;3827;49.928;8.548;2022-10-17T16:09:09;21.80;99.90
7572;DHT22;3827;49.928;8.548;2022-10-17T16:11:37;21.20;99.90
7572;DHT22;3827;49.928;8.548;2022-10-17T16:14:06;21.00;99.90
7572;DHT22;3827;49.928;8.548;2022-10-17T16:16:33;20.90;99.90
7572;DHT22;3827;49.928;8.548;2022-10-17T16:19:00;20.70;99.90
7572;DHT22;3827;49.928;8.548;2022-10-17T16:21:29;20.50;99.90
7572;DHT22;3827;49.928;8.548;2022-10-17T16:23:58;20.40;99.90
7572;DHT22;3827;49.928;8.548;2022-10-17T16:26:26;20.20;99.90
7572;DHT22;3827;49.928;8.548;2022-10-17T16:28:53;20.10;99.90
7572;DHT22;3827;49.928;8.548;2022-10-17T16:31:23;20.00;99.90
7572;DHT22;3827;49.928;8.548;2022-10-17T16:33:52;19.80;99.90